createdAt,value
2018-07-20T00:00:35.290Z,42.30
2018-07-20T00:03:05.488Z,43.00
2018-07-20T00:05:35.890Z,43.17
2018-07-20T00:08:06.241Z,42.47
2018-07-20T00:10:36.423Z,43.53
2018-07-20T00:13:06.705Z,43.47
2018-07-20T00:15:37.057Z,42.43
2018-07-20T00:18:07.874Z,43.80
2018-07-20T00:20:38.377Z,44.33
2018-07-20T00:23:08.573Z,42.90
2018-07-20T00:25:39.028Z,41.83
2018-07-20T00:28:09.716Z,43.10
2018-07-20T00:30:39.912Z,43.10
2018-07-20T00:33:10.674Z,44.20
2018-07-20T00:35:41.015Z,44.37
2018-07-20T00:38:11.272Z,43.60
2018-07-20T00:40:41.613Z,43.93
2018-07-20T00:43:11.734Z,43.47
2018-07-20T00:45:41.818Z,44.07
2018-07-20T00:48:12.984Z,44.07
2018-07-20T00:50:43.404Z,43.43
2018-07-20T00:53:13.547Z,43.10
2018-07-20T00:55:43.925Z,43.33
2018-07-20T00:58:14.255Z,43.10
2018-07-20T01:00:44.980Z,43.87
2018-07-20T01:03:15.286Z,43.20
2018-07-20T01:05:45.932Z,42.47
2018-07-20T01:08:16.205Z,42.47
2018-07-20T01:10:46.642Z,43.30
2018-07-20T01:13:16.886Z,42.70
2018-07-20T01:15:46.923Z,43.27
2018-07-20T01:18:19.994Z,42.47
2018-07-20T01:20:51.006Z,43.47
2018-07-20T01:23:21.433Z,42.80
2018-07-20T01:25:51.648Z,42.37
2018-07-20T01:28:22.216Z,42.97
2018-07-20T01:30:52.432Z,42.43
2018-07-20T01:33:22.490Z,42.17
2018-07-20T01:35:52.529Z,42.73
2018-07-20T01:38:23.276Z,42.97
2018-07-20T01:40:53.501Z,43.30
2018-07-20T01:43:23.784Z,42.80
2018-07-20T01:45:54.458Z,42.80
2018-07-20T01:48:24.483Z,42.90
2018-07-20T01:50:55.572Z,42.27
2018-07-20T01:53:25.766Z,41.90
2018-07-20T01:55:56.625Z,42.27
2018-07-20T01:58:26.993Z,41.57
2018-07-20T02:00:57.099Z,42.27
2018-07-20T02:03:27.476Z,41.77
2018-07-20T02:05:57.627Z,42.50
2018-07-20T02:08:27.627Z,41.80
2018-07-20T02:10:59.890Z,43.10
2018-07-20T02:13:30.442Z,42.10
2018-07-20T02:16:00.573Z,41.97
2018-07-20T02:18:31.091Z,42.07
2018-07-20T02:21:01.702Z,41.90
2018-07-20T02:23:32.777Z,42.10
2018-07-20T02:26:03.006Z,42.37
2018-07-20T02:28:34.239Z,41.77
2018-07-20T02:31:05.253Z,42.40
2018-07-20T02:33:35.600Z,42.57
2018-07-20T02:36:06.016Z,42.10
2018-07-20T02:38:36.280Z,42.33
2018-07-20T02:41:13.114Z,42.43
2018-07-20T02:43:43.262Z,41.80
2018-07-20T02:46:13.637Z,41.97
2018-07-20T02:48:43.618Z,42.50
2018-07-20T02:51:14.493Z,42.60
2018-07-20T02:53:44.942Z,42.10
2018-07-20T02:56:15.274Z,41.93
2018-07-20T02:58:45.402Z,41.53
2018-07-20T03:01:15.929Z,51.83
2018-07-20T03:03:46.021Z,42.30
2018-07-20T03:06:16.051Z,42.53
2018-07-20T03:08:46.035Z,41.80
2018-07-20T03:11:16.689Z,41.57
2018-07-20T03:13:46.867Z,41.87
2018-07-20T03:16:17.661Z,42.00
2018-07-20T03:18:48.173Z,42.57
2018-07-20T03:21:18.340Z,42.50
2018-07-20T03:23:49.498Z,41.30
2018-07-20T03:26:19.685Z,41.57
2018-07-20T03:28:50.241Z,41.63
2018-07-20T03:31:23.496Z,41.30
2018-07-20T03:33:54.765Z,42.47
2018-07-20T03:36:25.210Z,42.10
2018-07-20T03:38:57.896Z,41.87
2018-07-20T03:41:30.122Z,42.03
2018-07-20T03:44:01.282Z,41.27
2018-07-20T03:46:32.493Z,41.13
2018-07-20T03:49:03.300Z,40.77
2018-07-20T03:51:33.171Z,40.70
2018-07-20T03:54:03.680Z,40.63
2018-07-20T03:56:34.278Z,41.43
2018-07-20T03:59:04.262Z,42.03
2018-07-20T04:01:34.767Z,41.93
2018-07-20T04:04:04.941Z,42.43
2018-07-20T04:06:36.193Z,42.77
2018-07-20T04:09:08.858Z,42.37
2018-07-20T04:11:39.216Z,42.67
2018-07-20T04:14:09.807Z,42.23
2018-07-20T04:16:39.788Z,41.63
2018-07-20T04:19:10.512Z,42.50
2018-07-20T04:21:40.719Z,41.73
2018-07-20T04:24:11.323Z,41.87
2018-07-20T04:26:42.927Z,43.00
2018-07-20T04:29:13.444Z,43.20
2018-07-20T04:31:43.602Z,43.23
2018-07-20T04:34:13.920Z,43.07
2018-07-20T04:36:44.130Z,42.77
2018-07-20T04:39:15.311Z,43.43
2018-07-20T04:41:45.492Z,43.13
2018-07-20T04:44:15.638Z,42.53
2018-07-20T04:46:46.413Z,42.73
2018-07-20T04:49:16.551Z,43.90
2018-07-20T04:51:46.619Z,43.00
2018-07-20T04:54:17.271Z,44.23
2018-07-20T04:56:47.494Z,43.87
2018-07-20T04:59:17.764Z,43.27
2018-07-20T05:01:47.902Z,43.50
2018-07-20T05:04:18.125Z,43.40
2018-07-20T05:06:50.357Z,43.43
2018-07-20T05:09:20.654Z,43.63
2018-07-20T05:11:50.987Z,42.63
2018-07-20T05:14:21.280Z,43.20
2018-07-20T05:16:51.830Z,43.07
2018-07-20T05:19:22.492Z,43.07
2018-07-20T05:21:53.010Z,43.97
2018-07-20T05:24:23.312Z,43.30
2018-07-20T05:26:53.684Z,43.50
2018-07-20T05:29:24.337Z,43.27
2018-07-20T05:31:55.277Z,42.70
2018-07-20T05:34:25.434Z,43.70
2018-07-20T05:36:55.553Z,44.30
2018-07-20T05:39:25.773Z,43.63
2018-07-20T05:41:56.867Z,43.43
2018-07-20T05:44:26.950Z,43.17
2018-07-20T05:46:57.092Z,43.20
2018-07-20T05:49:27.557Z,43.87
2018-07-20T05:51:57.757Z,43.33
2018-07-20T05:54:28.103Z,42.63
2018-07-20T05:56:58.537Z,43.67
2018-07-20T05:59:28.934Z,43.63
2018-07-20T06:01:59.122Z,42.83
2018-07-20T06:04:29.822Z,43.17
2018-07-20T06:07:00.254Z,42.83
2018-07-20T06:09:30.645Z,43.07
2018-07-20T06:12:01.141Z,43.50
2018-07-20T06:14:31.543Z,43.40
2018-07-20T06:17:01.879Z,44.40
2018-07-20T06:19:32.060Z,44.70
2018-07-20T06:22:03.346Z,43.77
2018-07-20T06:24:34.149Z,43.70
2018-07-20T06:27:04.369Z,42.83
2018-07-20T06:29:35.288Z,43.03
2018-07-20T06:32:06.012Z,43.93
2018-07-20T06:34:36.757Z,43.77
2018-07-20T06:37:07.266Z,43.50
2018-07-20T06:39:37.304Z,44.47
2018-07-20T06:42:07.854Z,43.83
2018-07-20T06:44:38.084Z,44.30
2018-07-20T06:47:08.941Z,44.20
2018-07-20T06:49:39.214Z,43.90
2018-07-20T06:52:09.312Z,43.57
2018-07-20T06:54:39.751Z,43.70
2018-07-20T06:57:09.814Z,42.97
2018-07-20T06:59:40.025Z,44.03
2018-07-20T07:02:11.602Z,44.03
2018-07-20T07:04:41.702Z,43.90
2018-07-20T07:07:12.514Z,44.60
2018-07-20T07:09:42.978Z,43.40
2018-07-20T07:12:14.169Z,43.87
2018-07-20T07:14:44.351Z,43.80
2018-07-20T07:17:15.286Z,43.67
2018-07-20T07:19:45.391Z,43.73
2018-07-20T07:22:15.808Z,43.67
2018-07-20T07:24:45.842Z,44.20
2018-07-20T07:27:16.180Z,44.37
2018-07-20T07:29:47.445Z,42.80
2018-07-20T07:32:17.874Z,44.20
2018-07-20T07:34:48.066Z,44.07
2018-07-20T07:37:18.146Z,44.50
2018-07-20T07:39:48.688Z,44.40
2018-07-20T07:42:18.861Z,44.03
2018-07-20T07:44:49.442Z,44.33
2018-07-20T07:47:19.658Z,44.20
2018-07-20T07:49:49.590Z,44.13
2018-07-20T07:52:20.457Z,44.33
2018-07-20T07:54:50.736Z,44.90
2018-07-20T07:57:21.290Z,44.33
2018-07-20T07:59:51.636Z,44.33
2018-07-20T08:02:21.999Z,44.50
2018-07-20T08:04:52.320Z,44.87
2018-07-20T08:07:22.512Z,44.40
2018-07-20T08:09:52.951Z,44.87
2018-07-20T08:12:23.156Z,44.50
2018-07-20T08:14:53.790Z,44.90
2018-07-20T08:17:24.594Z,45.20
2018-07-20T08:19:55.421Z,45.07
2018-07-20T08:22:25.815Z,44.80
2018-07-20T08:24:58.817Z,45.03
2018-07-20T08:27:28.773Z,45.03
2018-07-20T08:29:59.165Z,44.87
2018-07-20T08:32:29.573Z,45.30
2018-07-20T08:34:59.981Z,47.17
2018-07-20T08:37:30.230Z,48.00
2018-07-20T08:40:01.193Z,49.80
2018-07-20T08:42:31.429Z,46.13
2018-07-20T08:45:02.300Z,45.17
2018-07-20T08:47:32.896Z,44.87
2018-07-20T08:50:05.193Z,45.67
2018-07-20T08:52:35.585Z,46.80
2018-07-20T08:55:06.036Z,46.67
2018-07-20T08:57:36.107Z,45.40
2018-07-20T09:00:07.648Z,45.60
2018-07-20T09:02:38.282Z,46.77
2018-07-20T09:05:08.429Z,46.63
2018-07-20T09:07:38.454Z,46.73
2018-07-20T09:10:09.350Z,45.97
2018-07-20T09:12:39.559Z,46.30
2018-07-20T09:15:09.974Z,46.73
2018-07-20T09:17:40.413Z,47.07
2018-07-20T09:20:11.190Z,46.27
2018-07-20T09:22:41.353Z,46.33
2018-07-20T09:25:11.844Z,46.50
2018-07-20T09:27:42.247Z,46.23
2018-07-20T09:30:12.393Z,46.13
2018-07-20T09:32:43.079Z,46.97
2018-07-20T09:35:13.148Z,46.10
2018-07-20T09:37:43.647Z,46.33
2018-07-20T09:40:13.880Z,46.13
2018-07-20T09:42:44.967Z,45.70
2018-07-20T09:45:15.186Z,46.70
2018-07-20T09:47:45.536Z,46.67
2018-07-20T09:50:17.110Z,46.03
2018-07-20T09:52:47.266Z,46.17
2018-07-20T09:55:17.586Z,46.27
2018-07-20T09:57:49.154Z,45.50
2018-07-20T10:00:24.266Z,48.33
2018-07-20T10:02:55.009Z,45.83
2018-07-20T10:05:25.453Z,46.13
2018-07-20T10:07:56.322Z,46.27
2018-07-20T10:10:26.544Z,45.77
2018-07-20T10:12:59.728Z,47.33
2018-07-20T10:15:30.245Z,46.40
2018-07-20T10:18:00.396Z,47.20
2018-07-20T10:20:30.688Z,45.70
2018-07-20T10:23:01.682Z,46.30
2018-07-20T10:25:32.515Z,47.47
2018-07-20T10:28:03.106Z,46.57
2018-07-20T10:30:33.380Z,46.30
2018-07-20T10:33:03.807Z,46.30
2018-07-20T10:35:33.779Z,48.03
2018-07-20T10:38:04.190Z,47.33
2018-07-20T10:40:34.698Z,47.27
2018-07-20T10:43:04.994Z,47.23
2018-07-20T10:45:34.971Z,46.00
2018-07-20T10:48:05.782Z,46.80
2018-07-20T10:50:36.444Z,46.67
2018-07-20T10:53:06.669Z,46.73
2018-07-20T10:55:37.008Z,45.57
2018-07-20T10:58:08.101Z,44.60
2018-07-20T11:00:38.048Z,70.83
2018-07-20T11:03:08.254Z,45.57
2018-07-20T11:05:38.828Z,45.33
2018-07-20T11:08:09.671Z,45.77
2018-07-20T11:10:41.029Z,45.50
2018-07-20T11:13:11.448Z,46.10
2018-07-20T11:15:42.603Z,45.93
2018-07-20T11:18:13.223Z,47.13
2018-07-20T11:20:43.993Z,45.70
2018-07-20T11:23:14.266Z,47.37
2018-07-20T11:25:45.053Z,45.97
2018-07-20T11:28:15.278Z,45.43
2018-07-20T11:30:45.524Z,46.50
2018-07-20T11:33:16.017Z,46.13
2018-07-20T11:35:52.707Z,46.87
2018-07-20T11:38:23.352Z,46.50
2018-07-20T11:40:53.784Z,46.47
2018-07-20T11:43:24.225Z,46.87
2018-07-20T11:45:54.582Z,46.30
2018-07-20T11:48:24.771Z,46.67
2018-07-20T11:50:55.229Z,47.10
2018-07-20T11:53:25.419Z,46.63
2018-07-20T11:55:55.892Z,46.60
2018-07-20T11:58:25.819Z,46.13
2018-07-20T12:00:56.097Z,46.73
2018-07-20T12:03:26.674Z,47.00
2018-07-20T12:05:56.955Z,46.70
2018-07-20T12:08:27.008Z,46.23
2018-07-20T12:10:57.117Z,45.73
2018-07-20T12:13:27.412Z,45.87
2018-07-20T12:15:57.479Z,47.33
2018-07-20T12:18:28.930Z,47.90
2018-07-20T12:20:59.196Z,47.00
2018-07-20T12:23:30.010Z,46.80
2018-07-20T12:26:00.752Z,47.17
2018-07-20T12:28:32.938Z,45.90
2018-07-20T12:31:03.631Z,47.50
2018-07-20T12:33:34.127Z,46.77
2018-07-20T12:36:04.096Z,46.37
2018-07-20T12:38:34.505Z,46.87
2018-07-20T12:41:04.689Z,47.23
2018-07-20T12:43:34.885Z,47.20
2018-07-20T12:46:05.190Z,47.60
2018-07-20T12:48:35.649Z,47.63
2018-07-20T12:51:06.139Z,46.90
2018-07-20T12:53:36.928Z,47.93
2018-07-20T12:56:07.377Z,48.23
2018-07-20T12:58:37.754Z,48.63
2018-07-20T13:01:08.901Z,47.57
2018-07-20T13:03:39.117Z,46.77
2018-07-20T13:06:09.569Z,47.73
2018-07-20T13:08:40.206Z,48.53
2018-07-20T13:11:10.305Z,48.23
2018-07-20T13:13:40.731Z,48.40
2018-07-20T13:16:10.844Z,47.23
2018-07-20T13:18:41.737Z,47.77
2018-07-20T13:21:12.768Z,48.00
2018-07-20T13:23:43.052Z,48.00
2018-07-20T13:26:13.489Z,47.83
2018-07-20T13:28:43.861Z,47.03
2018-07-20T13:31:14.110Z,47.43
2018-07-20T13:33:45.330Z,47.33
2018-07-20T13:36:16.211Z,47.53
2018-07-20T13:38:46.523Z,47.13
2018-07-20T13:41:17.046Z,47.13
2018-07-20T13:43:47.329Z,46.50
2018-07-20T13:46:17.686Z,46.93
2018-07-20T13:48:48.151Z,47.27
2018-07-20T13:51:18.836Z,47.13
2018-07-20T13:53:49.083Z,47.50
2018-07-20T13:56:19.360Z,46.60
2018-07-20T13:58:49.674Z,47.43
2018-07-20T14:01:19.864Z,47.13
2018-07-20T14:03:49.869Z,46.43
2018-07-20T14:06:22.178Z,47.07
2018-07-20T14:08:53.054Z,47.20
2018-07-20T14:11:23.716Z,46.80
2018-07-20T14:13:54.013Z,47.20
2018-07-20T14:16:24.508Z,47.10
2018-07-20T14:18:54.835Z,47.97
2018-07-20T14:21:25.207Z,48.07
2018-07-20T14:23:55.651Z,48.63
2018-07-20T14:26:29.148Z,47.17
2018-07-20T14:28:59.219Z,47.03
2018-07-20T14:31:29.533Z,47.50
2018-07-20T14:33:59.979Z,47.73
2018-07-20T14:36:30.194Z,48.10
2018-07-20T14:39:00.424Z,47.13
2018-07-20T14:41:31.149Z,46.97
2018-07-20T14:44:01.515Z,46.00
2018-07-20T14:46:31.790Z,47.13
2018-07-20T14:49:01.919Z,46.73
2018-07-20T14:51:32.463Z,47.03
2018-07-20T14:54:03.054Z,47.00
2018-07-20T14:56:33.149Z,46.17
2018-07-20T14:59:03.580Z,47.53
2018-07-20T15:01:33.482Z,47.53
2018-07-20T15:04:03.792Z,47.60
2018-07-20T15:06:34.501Z,47.13
2018-07-20T15:09:07.535Z,46.10
2018-07-20T15:11:37.455Z,46.00
2018-07-20T15:14:08.115Z,45.83
2018-07-20T15:16:38.350Z,46.50
2018-07-20T15:19:08.892Z,46.37
2018-07-20T15:21:39.448Z,46.80
2018-07-20T15:24:10.274Z,46.27
2018-07-20T15:26:40.555Z,46.20
2018-07-20T15:29:12.337Z,46.50
2018-07-20T15:31:43.070Z,47.20
2018-07-20T15:34:14.851Z,46.80
2018-07-20T15:36:46.304Z,45.97
2018-07-20T15:39:16.502Z,45.57
2018-07-20T15:41:47.369Z,47.40
2018-07-20T15:44:17.618Z,46.73
2018-07-20T15:46:48.083Z,47.53
2018-07-20T15:49:18.692Z,47.90
2018-07-20T15:53:35.610Z,49.50
2018-07-20T15:54:21.575Z,50.13
2018-07-20T15:56:55.453Z,49.97
2018-07-20T15:59:25.683Z,49.40
2018-07-20T16:01:56.453Z,49.93
2018-07-20T16:04:27.208Z,49.73
2018-07-20T16:06:59.337Z,48.70
2018-07-20T16:09:30.088Z,47.27
2018-07-20T16:12:01.428Z,47.17
2018-07-20T16:14:31.546Z,47.33
2018-07-20T16:17:01.957Z,47.57
2018-07-20T16:19:33.092Z,46.87
2018-07-20T16:22:03.370Z,46.97
2018-07-20T16:24:33.908Z,47.13
2018-07-20T16:27:04.595Z,47.53
2018-07-20T16:29:38.376Z,47.57
2018-07-20T16:32:09.049Z,47.03
2018-07-20T16:34:39.312Z,46.63
2018-07-20T16:37:09.439Z,47.20
2018-07-20T16:39:39.883Z,46.90
2018-07-20T16:42:10.442Z,46.90
2018-07-20T16:44:40.691Z,47.17
2018-07-20T16:47:11.320Z,47.03
2018-07-20T16:49:41.395Z,46.67
2018-07-20T16:52:13.914Z,47.53
2018-07-20T16:54:44.622Z,46.10
2018-07-20T16:57:14.832Z,46.70
2018-07-20T16:59:45.508Z,45.53
2018-07-20T17:02:15.612Z,46.50
2018-07-20T17:04:45.917Z,46.13
2018-07-20T17:07:16.143Z,45.63
2018-07-20T17:09:47.597Z,45.50
2018-07-20T17:12:17.804Z,45.60
2018-07-20T17:14:48.041Z,46.03
2018-07-20T17:17:18.245Z,45.83
2018-07-20T17:19:48.722Z,46.47
2018-07-20T17:22:19.088Z,45.23
2018-07-20T17:24:50.672Z,46.63
2018-07-20T17:27:21.174Z,45.47
2018-07-20T17:29:51.973Z,46.00
2018-07-20T17:32:23.144Z,46.30
2018-07-20T17:34:53.206Z,45.13
2018-07-20T17:37:23.624Z,45.80
2018-07-20T17:39:53.881Z,44.53
2018-07-20T17:42:24.755Z,45.50
2018-07-20T17:44:55.514Z,45.80
2018-07-20T17:47:25.897Z,44.03
2018-07-20T17:49:57.875Z,44.10
2018-07-20T17:52:28.906Z,43.93
2018-07-20T17:54:59.937Z,43.77
2018-07-20T17:57:31.048Z,45.57
2018-07-20T18:00:01.225Z,47.07
2018-07-20T18:02:31.544Z,46.37
2018-07-20T18:05:02.022Z,46.27
2018-07-20T18:07:32.132Z,44.93
2018-07-20T18:10:03.036Z,45.40
2018-07-20T18:12:33.302Z,45.73
2018-07-20T18:15:03.794Z,46.00
2018-07-20T18:17:33.985Z,45.60
2018-07-20T18:20:04.497Z,45.30
2018-07-20T18:22:34.842Z,44.13
2018-07-20T18:25:05.739Z,43.40
2018-07-20T18:27:36.343Z,44.77
2018-07-20T18:30:10.369Z,44.73
2018-07-20T18:32:41.460Z,45.20
2018-07-20T18:35:11.769Z,44.60
2018-07-20T18:37:42.078Z,44.80
2018-07-20T18:40:12.183Z,44.90
2018-07-20T18:42:45.428Z,44.50
2018-07-20T18:45:16.138Z,44.33
2018-07-20T18:47:46.196Z,44.77
2018-07-20T18:50:16.620Z,45.10
2018-07-20T18:52:47.243Z,44.97
2018-07-20T18:55:17.823Z,43.80
2018-07-20T18:57:55.924Z,43.40
2018-07-20T19:00:26.061Z,43.63
2018-07-20T19:02:56.012Z,43.33
2018-07-20T19:05:26.202Z,44.13
2018-07-20T19:07:56.299Z,43.80
2018-07-20T19:10:26.446Z,43.80
2018-07-20T19:12:56.950Z,43.07
2018-07-20T19:15:27.585Z,43.53
2018-07-20T19:17:57.674Z,42.60
2018-07-20T19:20:28.727Z,43.57
2018-07-20T19:22:59.786Z,43.50
2018-07-20T19:25:30.047Z,43.63
2018-07-20T19:28:00.486Z,42.77
2018-07-20T19:30:30.740Z,42.60
2018-07-20T19:33:01.009Z,43.90
2018-07-20T19:35:31.148Z,44.73
2018-07-20T19:38:01.206Z,43.40
2018-07-20T19:40:31.619Z,43.87
2018-07-20T19:43:02.225Z,43.63
2018-07-20T19:45:32.532Z,42.80
2018-07-20T19:48:02.614Z,43.57
2018-07-20T19:50:33.102Z,43.40
2018-07-20T19:53:03.337Z,42.73
2018-07-20T19:55:33.528Z,42.77
2018-07-20T19:58:03.782Z,43.57
2018-07-20T20:00:34.330Z,43.57
2018-07-20T20:03:04.572Z,43.03
2018-07-20T20:05:34.764Z,43.30
2018-07-20T20:08:05.609Z,43.53
2018-07-20T20:10:35.709Z,43.50
2018-07-20T20:13:06.635Z,43.30
2018-07-20T20:15:37.025Z,44.10
2018-07-20T20:18:08.365Z,43.77
2018-07-20T20:20:38.671Z,43.30
2018-07-20T20:23:08.437Z,43.07
2018-07-20T20:25:39.287Z,43.37
2018-07-20T20:28:09.700Z,42.77
2018-07-20T20:30:41.315Z,42.63
2018-07-20T20:33:12.409Z,43.30
2018-07-20T20:35:42.608Z,43.27
2018-07-20T20:38:12.916Z,42.97
2018-07-20T20:40:43.142Z,43.97
2018-07-20T20:43:13.933Z,43.37
2018-07-20T20:45:44.197Z,44.33
2018-07-20T20:48:15.885Z,43.07
2018-07-20T20:50:46.761Z,43.30
2018-07-20T20:53:17.017Z,43.33
2018-07-20T20:55:47.239Z,43.50
2018-07-20T20:58:17.519Z,43.20
2018-07-20T21:00:47.718Z,43.17
2018-07-20T21:03:18.485Z,43.37
2018-07-20T21:05:49.600Z,43.80
2018-07-20T21:08:19.887Z,42.97
2018-07-20T21:10:50.506Z,43.53
2018-07-20T21:13:20.576Z,44.10
2018-07-20T21:15:50.986Z,43.53
2018-07-20T21:18:21.125Z,43.73
2018-07-20T21:20:51.576Z,43.37
2018-07-20T21:23:24.180Z,43.63
2018-07-20T21:25:54.427Z,43.90
2018-07-20T21:28:25.680Z,43.57
2018-07-20T21:30:55.933Z,44.60
2018-07-20T21:33:30.355Z,43.10
2018-07-20T21:36:00.956Z,43.83
2018-07-20T21:38:31.148Z,44.07
2018-07-20T21:41:01.400Z,43.93
2018-07-20T21:43:32.391Z,43.03
2018-07-20T21:46:04.948Z,42.37
2018-07-20T21:48:35.766Z,42.93
2018-07-20T21:51:07.108Z,44.27
2018-07-20T21:53:37.564Z,43.67
2018-07-20T21:56:09.004Z,43.40
2018-07-20T21:58:39.737Z,42.97
2018-07-20T22:01:10.157Z,43.30
2018-07-20T22:03:40.830Z,43.60
2018-07-20T22:06:10.983Z,43.80
2018-07-20T22:08:41.228Z,43.23
2018-07-20T22:11:15.477Z,43.53
2018-07-20T22:13:50.887Z,42.73
2018-07-20T22:16:37.892Z,43.07
2018-07-20T22:19:08.195Z,42.73
2018-07-20T22:21:38.474Z,42.67
2018-07-20T22:24:25.479Z,42.30
2018-07-20T22:27:03.391Z,43.80
2018-07-20T22:29:45.742Z,42.37
2018-07-20T22:32:25.668Z,42.17
2018-07-20T22:38:18.551Z,43.23
2018-07-20T22:40:51.589Z,42.77
2018-07-20T22:43:21.719Z,42.53
2018-07-20T22:45:51.796Z,42.80
2018-07-20T22:48:28.409Z,42.60
2018-07-20T22:50:59.104Z,42.80
2018-07-20T22:53:29.344Z,42.97
2018-07-20T22:55:59.343Z,42.47
2018-07-20T22:58:29.691Z,42.83
2018-07-20T23:01:01.478Z,49.73
2018-07-20T23:03:33.786Z,43.23
2018-07-20T23:06:04.028Z,42.50
2018-07-20T23:08:34.293Z,43.23
2018-07-20T23:11:06.959Z,42.90
2018-07-20T23:13:39.857Z,43.00
2018-07-20T23:16:10.394Z,42.53
2018-07-20T23:18:40.779Z,42.93
2018-07-20T23:21:11.803Z,43.07
2018-07-20T23:23:42.205Z,43.40
2018-07-20T23:26:12.888Z,43.10
2018-07-20T23:28:45.114Z,43.57
2018-07-20T23:31:15.489Z,43.67
2018-07-20T23:33:46.077Z,43.53
2018-07-20T23:36:16.611Z,43.10
2018-07-20T23:38:47.061Z,43.03
2018-07-20T23:41:17.702Z,43.10
2018-07-20T23:43:48.245Z,43.27
2018-07-20T23:46:20.076Z,43.53
2018-07-20T23:48:50.969Z,42.80
2018-07-20T23:51:21.261Z,42.97
2018-07-20T23:53:52.049Z,43.27
2018-07-20T23:56:23.058Z,43.83
2018-07-20T23:58:53.470Z,43.87
